Time;durP1;ratioP1;P1;durP2;ratioP2;P2;SDS_P1;SDS_P2;PMS_P1;PMS_P2;Temp;Humidity;BMP_temperature;BMP_pressure;BME280_temperature;BME280_humidity;BME280_pressure;Samples;Min_cycle;Max_cycle;Signal;HPM_P1;HPM_P2
2022/06/08 00:00:08;;;;;;;2.20;2.00;;;18.20;84.10;;;;;;4971062;28;20488;-45
2022/06/08 00:02:35;;;;;;;1.97;1.87;;;18.10;84.00;;;;;;4987679;28;20920;-45
2022/06/08 00:05:03;;;;;;;3.93;1.80;;;18.10;84.00;;;;;;4986912;28;20468;-45
2022/06/08 00:07:30;;;;;;;1.90;1.80;;;18.10;84.00;;;;;;4987469;28;21008;-45
2022/06/08 00:09:58;;;;;;;1.80;1.70;;;18.10;83.80;;;;;;4991248;28;20471;-46
2022/06/08 00:12:26;;;;;;;1.37;1.20;;;18.00;83.90;;;;;;4991066;28;20458;-45
2022/06/08 00:14:53;;;;;;;2.00;1.80;;;18.00;83.90;;;;;;4991170;28;20453;-45
2022/06/08 00:17:20;;;;;;;2.00;1.80;;;18.00;84.00;;;;;;4986435;28;20460;-45
2022/06/08 00:19:47;;;;;;;3.90;1.60;;;17.90;84.00;;;;;;4987689;28;20559;-45
2022/06/08 00:22:14;;;;;;;2.10;1.30;;;17.90;84.10;;;;;;4987750;28;20579;-45
2022/06/08 00:24:40;;;;;;;1.80;1.37;;;17.90;84.10;;;;;;4988384;28;20710;-45
2022/06/08 00:27:08;;;;;;;1.90;1.80;;;17.80;84.10;;;;;;4990840;28;20488;-45
2022/06/08 00:29:35;;;;;;;2.63;1.83;;;17.80;83.80;;;;;;4989924;28;20548;-45
2022/06/08 00:32:02;;;;;;;2.20;2.00;;;17.80;83.60;;;;;;4989304;28;20532;-45
2022/06/08 00:34:29;;;;;;;1.73;1.63;;;17.80;83.40;;;;;;4986456;28;20461;-45
2022/06/08 00:36:56;;;;;;;2.20;2.00;;;17.80;83.60;;;;;;4988985;28;20541;-45
2022/06/08 00:39:23;;;;;;;2.63;2.10;;;17.70;83.60;;;;;;4989780;28;20457;-45
2022/06/08 00:41:54;;;;;;;2.47;2.03;;;17.70;83.60;;;;;;4988490;28;20453;-45
2022/06/08 00:44:24;;;;;;;2.40;2.03;;;17.60;83.70;;;;;;4951198;28;20477;-45
2022/06/08 00:46:52;;;;;;;3.83;3.40;;;17.60;83.70;;;;;;4986032;28;20560;-45
2022/06/08 00:49:31;;;;;;;2.10;2.00;;;17.60;83.60;;;;;;4987318;28;20837;-45
2022/06/08 00:52:00;;;;;;;2.60;2.40;;;17.50;83.70;;;;;;4971359;28;20901;-45
2022/06/08 00:54:39;;;;;;;2.40;2.17;;;17.50;83.60;;;;;;4971612;28;20461;-45
2022/06/08 00:57:17;;;;;;;2.57;2.10;;;17.50;83.40;;;;;;4971376;28;20456;-45
2022/06/08 00:59:49;;;;;;;3.97;1.97;;;17.50;83.30;;;;;;4989258;28;20469;-45
2022/06/08 01:02:18;;;;;;;3.53;2.57;;;17.40;83.20;;;;;;4987841;28;20551;-45
2022/06/08 01:04:45;;;;;;;3.90;1.90;;;17.40;83.20;;;;;;4971610;28;20476;-45
2022/06/08 01:07:19;;;;;;;2.37;2.17;;;17.40;83.30;;;;;;4989874;28;20457;-45
2022/06/08 01:09:46;;;;;;;2.27;2.03;;;17.30;83.30;;;;;;4972457;28;20832;-45
2022/06/08 01:12:18;;;;;;;2.07;1.87;;;17.30;83.40;;;;;;4968774;28;20975;-45
2022/06/08 01:14:47;;;;;;;2.63;2.43;;;17.30;83.10;;;;;;4986201;28;20653;-45
2022/06/08 01:17:18;;;;;;;4.43;2.90;;;17.30;83.30;;;;;;4964148;28;20540;-45
2022/06/08 01:19:47;;;;;;;2.97;2.70;;;17.30;83.10;;;;;;4987576;28;20975;-45
2022/06/08 01:22:17;;;;;;;3.03;2.73;;;17.20;83.40;;;;;;4985840;28;20469;-45
2022/06/08 01:24:49;;;;;;;3.77;2.00;;;17.20;83.70;;;;;;4984565;28;20461;-45
2022/06/08 01:27:52;;;;;;;3.13;2.00;;;17.20;83.70;;;;;;4971846;28;20464;-45
2022/06/08 01:30:27;;;;;;;4.23;2.53;;;17.20;83.60;;;;;;4988277;28;20465;-45
2022/06/08 01:33:08;;;;;;;3.30;2.60;;;17.20;83.40;;;;;;4989022;28;20547;-45
2022/06/08 01:35:53;;;;;;;4.07;2.33;;;17.20;83.40;;;;;;4986985;28;21227;-45
2022/06/08 01:38:48;;;;;;;2.93;2.13;;;17.20;83.00;;;;;;4988831;28;20476;-45
2022/06/08 01:41:56;;;;;;;3.10;2.30;;;17.10;82.50;;;;;;4988711;28;20464;-46
2022/06/08 01:45:28;;;;;;;3.83;2.67;;;17.10;82.50;;;;;;4969874;28;20503;-45
2022/06/08 01:47:54;;;;;;;3.67;2.13;;;17.10;83.00;;;;;;4972391;28;20465;-45
2022/06/08 01:50:56;;;;;;;2.17;1.97;;;17.00;83.10;;;;;;4943244;28;20464;-45
2022/06/08 01:53:26;;;;;;;2.83;2.33;;;16.90;83.60;;;;;;4969370;28;20496;-45
2022/06/08 01:55:57;;;;;;;5.37;2.40;;;16.90;84.00;;;;;;4986573;28;20504;-45
2022/06/08 01:58:43;;;;;;;2.87;2.30;;;16.90;84.20;;;;;;4986687;28;20477;-45
2022/06/08 02:01:20;;;;;;;2.97;2.77;;;16.90;84.40;;;;;;4985637;28;20473;-45
2022/06/08 02:03:58;;;;;;;2.73;2.47;;;16.90;84.80;;;;;;4968993;28;20493;-45
2022/06/08 02:06:43;;;;;;;2.67;2.13;;;16.90;85.00;;;;;;4986880;28;20457;-45
2022/06/08 02:09:17;;;;;;;3.10;2.90;;;17.00;85.10;;;;;;4970593;28;20462;-45
2022/06/08 02:11:55;;;;;;;2.73;2.53;;;17.00;85.20;;;;;;4985338;28;20465;-45
2022/06/08 02:14:45;;;;;;;3.10;2.80;;;17.00;85.20;;;;;;4988989;28;20456;-45
2022/06/08 02:17:43;;;;;;;3.43;3.13;;;17.00;85.20;;;;;;4987281;28;20475;-45
2022/06/08 02:20:18;;;;;;;3.40;2.73;;;17.00;85.40;;;;;;4987955;28;20468;-45
2022/06/08 02:22:56;;;;;;;3.70;3.17;;;17.00;85.20;;;;;;4986481;28;20489;-45
2022/06/08 02:25:33;;;;;;;2.60;2.40;;;17.00;85.20;;;;;;4986142;28;20488;-45
2022/06/08 02:28:07;;;;;;;3.17;2.63;;;17.00;85.20;;;;;;4983646;28;20465;-45
2022/06/08 02:30:42;;;;;;;3.73;3.07;;;17.00;85.10;;;;;;4987998;28;20541;-43
2022/06/08 02:36:07;;;;;;;3.50;3.20;;;16.90;85.00;;;;;;4972485;28;20470;-43
2022/06/08 02:38:39;;;;;;;3.10;2.60;;;16.90;84.90;;;;;;4986389;28;21000;-43
2022/06/08 02:41:09;;;;;;;4.57;3.20;;;16.90;84.90;;;;;;4966812;28;20471;-43
2022/06/08 02:43:42;;;;;;;3.40;2.80;;;16.90;84.90;;;;;;4971020;28;20985;-43
2022/06/08 02:46:10;;;;;;;3.93;2.57;;;16.90;85.00;;;;;;4987662;28;20556;-43
2022/06/08 02:48:37;;;;;;;3.03;2.80;;;16.90;84.80;;;;;;4987307;28;20460;-43
2022/06/08 02:51:05;;;;;;;4.00;3.20;;;16.90;84.90;;;;;;4969126;28;20481;-43
2022/06/08 02:53:32;;;;;;;4.30;2.53;;;16.90;84.70;;;;;;4987293;28;20930;-43
2022/06/08 02:56:31;;;;;;;4.77;3.43;;;16.90;84.70;;;;;;4967328;28;20461;-43
2022/06/08 02:59:14;;;;;;;3.57;3.20;;;16.90;84.30;;;;;;4967114;28;20560;-44
2022/06/08 03:01:49;;;;;;;3.53;3.23;;;16.90;84.30;;;;;;4986481;28;20978;-44
2022/06/08 03:04:36;;;;;;;3.10;2.80;;;16.80;84.20;;;;;;4964601;28;20547;-44
2022/06/08 03:07:14;;;;;;;5.60;2.67;;;16.80;84.20;;;;;;4987500;28;21036;-44
2022/06/08 03:09:43;;;;;;;3.57;2.90;;;16.80;84.40;;;;;;4988686;28;20463;-44
2022/06/08 03:12:19;;;;;;;4.77;2.97;;;16.70;84.40;;;;;;4967790;28;20461;-44
2022/06/08 03:14:47;;;;;;;2.80;2.60;;;16.70;84.40;;;;;;4986027;28;20465;-44
2022/06/08 03:17:26;;;;;;;3.77;2.87;;;16.70;84.50;;;;;;4985964;28;20464;-44
2022/06/08 03:19:53;;;;;;;5.30;3.67;;;16.70;84.60;;;;;;4987429;28;20905;-44
2022/06/08 03:22:20;;;;;;;3.53;3.23;;;16.70;84.50;;;;;;4968933;28;20464;-44
2022/06/08 03:24:47;;;;;;;3.57;2.97;;;16.70;84.50;;;;;;4985321;28;20501;-44
2022/06/08 03:27:14;;;;;;;4.43;3.30;;;16.60;84.50;;;;;;4968367;28;20473;-44
2022/06/08 03:29:41;;;;;;;3.73;3.07;;;16.60;84.60;;;;;;4972140;28;20452;-44
2022/06/08 03:32:08;;;;;;;5.83;3.30;;;16.60;84.70;;;;;;4984066;28;20457;-44
2022/06/08 03:34:35;;;;;;;4.77;2.90;;;16.60;84.80;;;;;;4986477;28;20505;-44
2022/06/08 03:37:03;;;;;;;3.47;2.73;;;16.60;84.90;;;;;;4987711;28;20473;-44
2022/06/08 03:39:30;;;;;;;3.60;3.30;;;16.60;85.00;;;;;;4969009;28;20465;-44
2022/06/08 03:41:57;;;;;;;3.40;3.10;;;16.60;85.00;;;;;;4988911;28;20466;-44
2022/06/08 03:44:23;;;;;;;4.27;3.20;;;16.60;85.00;;;;;;4991432;28;21058;-44
2022/06/08 03:46:54;;;;;;;4.23;3.33;;;16.60;85.10;;;;;;4988802;28;20472;-44
2022/06/08 03:49:23;;;;;;;5.10;3.80;;;16.60;85.20;;;;;;4988147;28;20556;-44
2022/06/08 03:51:52;;;;;;;3.77;3.17;;;16.60;85.30;;;;;;4988507;28;20978;-44
2022/06/08 03:54:22;;;;;;;4.00;3.70;;;16.60;85.20;;;;;;4989355;28;20460;-44
2022/06/08 03:56:52;;;;;;;3.10;2.80;;;16.60;85.20;;;;;;4986949;28;20476;-44
2022/06/08 03:59:19;;;;;;;3.33;3.03;;;16.60;85.30;;;;;;4989181;28;20469;-44
2022/06/08 04:01:46;;;;;;;4.23;3.87;;;16.60;85.40;;;;;;4988314;28;20854;-44
2022/06/08 04:04:12;;;;;;;3.53;2.90;;;16.70;85.10;;;;;;4955759;28;21009;-44
2022/06/08 04:06:39;;;;;;;4.07;3.03;;;16.70;84.50;;;;;;4973912;28;20541;-44
2022/06/08 04:09:06;;;;;;;4.43;3.30;;;16.80;84.40;;;;;;4989857;28;20882;-44
2022/06/08 04:11:33;;;;;;;5.20;3.03;;;16.80;84.40;;;;;;4989287;28;21036;-44
2022/06/08 04:14:01;;;;;;;3.70;2.80;;;16.80;84.60;;;;;;4989666;28;20469;-44
2022/06/08 04:16:29;;;;;;;5.17;3.50;;;16.80;84.70;;;;;;4989610;28;20505;-44
2022/06/08 04:18:56;;;;;;;3.80;3.40;;;16.80;84.70;;;;;;4987391;28;20511;-44
2022/06/08 04:21:22;;;;;;;3.20;2.80;;;16.80;84.70;;;;;;4989793;28;20468;-44
2022/06/08 04:23:51;;;;;;;4.30;3.03;;;16.80;84.70;;;;;;4989725;28;20496;-44
2022/06/08 04:26:18;;;;;;;4.20;3.23;;;16.80;84.60;;;;;;4973628;28;20462;-44
2022/06/08 04:28:46;;;;;;;7.93;3.53;;;16.80;84.60;;;;;;4989636;28;20971;-44
2022/06/08 04:31:13;;;;;;;3.70;3.37;;;16.80;84.60;;;;;;4988711;28;20900;-44
2022/06/08 04:33:40;;;;;;;3.40;3.07;;;16.80;84.70;;;;;;4989702;28;20476;-44
2022/06/08 04:36:11;;;;;;;4.40;3.40;;;16.80;84.70;;;;;;4989178;28;20916;-44
2022/06/08 04:38:38;;;;;;;4.87;3.30;;;16.80;84.60;;;;;;4989865;28;20486;-44
2022/06/08 04:41:06;;;;;;;3.67;3.37;;;16.80;84.70;;;;;;4989011;28;20483;-44
2022/06/08 04:43:33;;;;;;;6.67;3.47;;;16.80;84.80;;;;;;4986814;28;20491;-44
2022/06/08 04:46:00;;;;;;;4.07;3.40;;;16.80;84.80;;;;;;4971583;28;20512;-44
2022/06/08 04:48:27;;;;;;;3.83;3.30;;;16.70;85.00;;;;;;4987449;28;20469;-44
2022/06/08 04:50:54;;;;;;;3.07;2.73;;;16.80;85.00;;;;;;4969797;28;20950;-44
2022/06/08 04:53:21;;;;;;;3.47;3.17;;;16.80;85.20;;;;;;4988957;28;20946;-44
2022/06/08 04:55:48;;;;;;;4.23;3.83;;;16.80;85.30;;;;;;4989719;28;20913;-44
2022/06/08 04:58:15;;;;;;;5.10;3.10;;;16.80;85.40;;;;;;4990641;28;20453;-44
2022/06/08 05:00:41;;;;;;;5.30;3.53;;;16.80;85.40;;;;;;4989323;28;20489;-44
2022/06/08 05:03:08;;;;;;;3.33;3.10;;;16.80;85.30;;;;;;4984639;28;20555;-44
2022/06/08 05:05:38;;;;;;;6.10;4.00;;;16.90;85.20;;;;;;4989482;28;20442;-44
2022/06/08 05:08:07;;;;;;;3.60;3.30;;;16.90;85.20;;;;;;4971918;28;20446;-44
2022/06/08 05:10:35;;;;;;;6.30;3.90;;;16.90;85.20;;;;;;4987605;28;20450;-44
2022/06/08 05:13:04;;;;;;;4.97;3.80;;;16.90;85.10;;;;;;4987391;28;20511;-44
2022/06/08 05:15:33;;;;;;;3.90;3.23;;;17.00;84.90;;;;;;4987469;28;20694;-44
2022/06/08 05:18:01;;;;;;;4.30;3.63;;;17.00;84.50;;;;;;4970833;28;20512;-44
2022/06/08 05:20:28;;;;;;;4.23;3.60;;;17.00;84.10;;;;;;4986946;28;20471;-44
2022/06/08 05:22:56;;;;;;;3.87;3.17;;;17.10;84.00;;;;;;4981080;28;20468;-44
2022/06/08 05:25:44;;;;;;;4.70;3.60;;;17.10;84.10;;;;;;4989680;28;20485;-44
2022/06/08 05:28:13;;;;;;;3.43;3.13;;;17.10;83.80;;;;;;4987871;28;20461;-44
2022/06/08 05:30:41;;;;;;;3.73;3.30;;;17.10;83.40;;;;;;4987513;28;20469;-44
2022/06/08 05:33:08;;;;;;;4.23;2.93;;;17.10;83.40;;;;;;4989087;28;20457;-42
2022/06/08 05:35:35;;;;;;;4.83;3.23;;;17.20;83.50;;;;;;4971287;28;20947;-42
2022/06/08 05:38:02;;;;;;;3.73;2.83;;;17.20;83.30;;;;;;4988394;28;20823;-46
2022/06/08 05:40:32;;;;;;;3.60;3.30;;;17.20;82.70;;;;;;4988954;28;20466;-46
2022/06/08 05:43:00;;;;;;;3.80;3.10;;;17.20;82.90;;;;;;4969073;28;20989;-46
2022/06/08 05:45:29;;;;;;;4.30;3.50;;;17.30;82.90;;;;;;4968927;28;21033;-46
2022/06/08 05:47:57;;;;;;;7.07;3.77;;;17.30;82.80;;;;;;4985882;28;20464;-47
2022/06/08 05:50:25;;;;;;;3.20;2.83;;;17.40;82.80;;;;;;4988551;28;20446;-46
2022/06/08 05:52:52;;;;;;;4.10;3.47;;;17.40;82.70;;;;;;4986830;28;20988;-46
2022/06/08 05:55:21;;;;;;;3.80;3.20;;;17.40;82.80;;;;;;4964185;28;20993;-46
2022/06/08 05:57:48;;;;;;;4.73;3.33;;;17.40;82.90;;;;;;4981269;28;20484;-46
2022/06/08 06:00:20;;;;;;;4.03;3.13;;;17.50;82.90;;;;;;4981936;28;21493;-45
2022/06/08 06:02:46;;;;;;;7.40;3.40;;;17.60;82.70;;;;;;4982879;28;20679;-48
2022/06/08 06:05:16;;;;;;;6.73;3.47;;;17.60;82.50;;;;;;4987052;28;20928;-46
2022/06/08 06:07:43;;;;;;;5.63;3.07;;;17.70;81.80;;;;;;4987375;28;21002;-47
2022/06/08 06:10:11;;;;;;;7.60;3.13;;;17.70;81.10;;;;;;4985198;28;20850;-47
2022/06/08 06:12:38;;;;;;;15.10;3.77;;;17.70;80.80;;;;;;4987419;28;20480;-46
2022/06/08 06:15:06;;;;;;;4.77;2.80;;;17.80;80.10;;;;;;4986869;28;20962;-47
2022/06/08 06:17:33;;;;;;;6.03;2.90;;;17.80;79.60;;;;;;4982603;28;20467;-47
2022/06/08 06:20:00;;;;;;;4.57;2.80;;;17.80;79.40;;;;;;4984485;28;20524;-47
2022/06/08 06:22:27;;;;;;;4.83;2.97;;;17.80;79.40;;;;;;4984892;28;20476;-47
2022/06/08 06:24:54;;;;;;;3.07;2.67;;;17.90;79.50;;;;;;4987379;28;20485;-43
2022/06/08 06:27:21;;;;;;;5.23;3.13;;;18.00;80.00;;;;;;4962043;28;20458;-43
2022/06/08 06:29:49;;;;;;;7.53;3.23;;;18.00;79.90;;;;;;4985571;28;20547;-43
2022/06/08 06:32:23;;;;;;;4.33;2.87;;;18.10;79.80;;;;;;4987196;28;20457;-43
2022/06/08 06:34:50;;;;;;;3.43;2.63;;;18.10;79.50;;;;;;4987545;28;20456;-43
2022/06/08 06:37:17;;;;;;;9.23;5.90;;;18.10;79.10;;;;;;4987612;28;20551;-43
2022/06/08 06:39:44;;;;;;;3.10;1.97;;;18.10;78.30;;;;;;4987468;28;20560;-43
2022/06/08 06:42:16;;;;;;;4.37;2.67;;;18.20;78.20;;;;;;4984495;28;20833;-43
2022/06/08 06:44:43;;;;;;;5.33;2.30;;;18.30;78.00;;;;;;4987521;28;20493;-43
2022/06/08 06:47:11;;;;;;;4.40;2.40;;;18.40;76.60;;;;;;4983139;28;20457;-43
2022/06/08 06:49:38;;;;;;;4.60;2.10;;;18.40;76.80;;;;;;4985548;28;20580;-43
2022/06/08 06:52:05;;;;;;;3.87;1.87;;;18.50;76.40;;;;;;4988376;28;20493;-43
2022/06/08 06:54:32;;;;;;;4.60;2.40;;;18.50;75.90;;;;;;4984720;28;20457;-43
2022/06/08 06:56:59;;;;;;;3.63;2.03;;;18.60;75.70;;;;;;4979643;28;20553;-43
2022/06/08 06:59:26;;;;;;;3.87;2.27;;;18.70;75.60;;;;;;4981999;28;20600;-43
2022/06/08 07:01:53;;;;;;;3.90;2.30;;;18.70;75.10;;;;;;4965536;28;20483;-43
2022/06/08 07:04:19;;;;;;;3.33;2.37;;;18.80;74.40;;;;;;4970532;28;20489;-43
2022/06/08 07:06:46;;;;;;;4.73;2.20;;;18.80;72.90;;;;;;4968141;28;20453;-43
2022/06/08 07:09:13;;;;;;;3.70;2.27;;;18.80;73.20;;;;;;4983410;28;20977;-43
2022/06/08 07:11:40;;;;;;;7.50;1.90;;;18.80;73.30;;;;;;4990629;28;20449;-43
2022/06/08 07:14:13;;;;;;;1.97;1.80;;;19.00;72.90;;;;;;4993101;28;20445;-42
2022/06/08 07:16:40;;;;;;;3.10;1.77;;;19.00;72.40;;;;;;4973908;28;20469;-43
2022/06/08 07:19:08;;;;;;;3.67;2.03;;;19.10;71.70;;;;;;4990436;28;20620;-43
2022/06/08 07:21:35;;;;;;;2.63;2.10;;;19.00;72.70;;;;;;4991206;28;20530;-43
2022/06/08 07:24:02;;;;;;;2.60;1.83;;;19.10;73.00;;;;;;4974194;28;20859;-43
2022/06/08 07:26:29;;;;;;;3.40;1.93;;;19.10;73.00;;;;;;4986949;28;20529;-43
2022/06/08 07:28:57;;;;;;;4.90;2.20;;;19.20;73.60;;;;;;4991988;28;20496;-43
2022/06/08 07:31:26;;;;;;;3.23;2.43;;;19.30;74.00;;;;;;4991883;28;20484;-43
2022/06/08 07:33:53;;;;;;;4.57;3.00;;;19.50;73.60;;;;;;4992121;28;20523;-43
2022/06/08 07:36:21;;;;;;;2.50;1.80;;;19.60;73.00;;;;;;4971828;28;20827;-43
2022/06/08 07:38:48;;;;;;;3.30;2.17;;;19.60;73.00;;;;;;4992509;28;20461;-43
2022/06/08 07:41:16;;;;;;;2.37;1.90;;;19.60;72.20;;;;;;4985314;28;20461;-43
2022/06/08 07:43:42;;;;;;;6.07;2.87;;;19.70;71.90;;;;;;4972711;28;21062;-43
2022/06/08 07:46:10;;;;;;;6.00;2.50;;;19.80;71.50;;;;;;4988752;28;20656;-43
2022/06/08 07:51:22;;;;;;;4.20;2.37;;;20.20;70.20;;;;;;4988689;28;20840;-43
2022/06/08 07:53:49;;;;;;;4.60;2.20;;;20.30;70.60;;;;;;4990810;28;20467;-43
2022/06/08 07:56:16;;;;;;;3.33;2.83;;;20.50;70.10;;;;;;4986880;28;20505;-43
2022/06/08 07:58:43;;;;;;;3.20;2.13;;;20.70;69.80;;;;;;4988153;28;20545;-43
2022/06/08 08:01:10;;;;;;;6.90;1.90;;;20.90;69.40;;;;;;4991019;28;20501;-43
2022/06/08 08:03:37;;;;;;;6.70;2.83;;;21.10;68.60;;;;;;4990461;28;21032;-43
2022/06/08 08:06:04;;;;;;;5.80;2.33;;;21.30;67.90;;;;;;4990010;28;20484;-43
2022/06/08 08:08:31;;;;;;;3.93;2.70;;;21.50;67.40;;;;;;4990219;28;20877;-43
2022/06/08 08:10:58;;;;;;;4.87;2.40;;;21.70;66.30;;;;;;4988192;28;20608;-43
2022/06/08 08:13:25;;;;;;;4.77;2.43;;;21.90;65.80;;;;;;4990923;28;20455;-43
2022/06/08 08:15:52;;;;;;;2.83;2.53;;;22.10;64.40;;;;;;4990718;28;21008;-43
2022/06/08 08:18:19;;;;;;;4.53;2.30;;;22.10;65.00;;;;;;4989039;28;20484;-43
2022/06/08 08:20:46;;;;;;;4.43;2.23;;;22.20;64.40;;;;;;4991252;28;20457;-43
2022/06/08 08:23:13;;;;;;;3.33;2.00;;;22.40;63.90;;;;;;4988316;28;20469;-43
2022/06/08 08:25:40;;;;;;;2.60;2.10;;;22.60;63.50;;;;;;4987948;28;20510;-43
2022/06/08 08:28:08;;;;;;;3.63;2.23;;;22.70;63.60;;;;;;4988039;28;20461;-43
2022/06/08 08:30:35;;;;;;;1.80;1.50;;;22.80;63.00;;;;;;4989579;28;20456;-43
2022/06/08 08:33:02;;;;;;;4.43;2.60;;;22.90;62.80;;;;;;4969571;28;20449;-43
2022/06/08 08:35:29;;;;;;;4.33;1.60;;;22.90;61.60;;;;;;4991312;28;20476;-43
2022/06/08 08:37:57;;;;;;;4.57;2.20;;;23.00;62.00;;;;;;4991990;28;20752;-43
2022/06/08 08:40:45;;;;;;;2.63;1.60;;;23.20;62.10;;;;;;4972654;28;20484;-43
2022/06/08 08:43:17;;;;;;;4.30;2.37;;;23.20;61.50;;;;;;4988504;28;20464;-43
2022/06/08 08:46:23;;;;;;;3.33;1.60;;;23.30;62.10;;;;;;4970393;28;20488;-43
2022/06/08 08:49:01;;;;;;;4.27;1.60;;;23.40;62.20;;;;;;4969796;28;20449;-43
2022/06/08 08:51:41;;;;;;;1.60;1.23;;;23.50;59.00;;;;;;4989251;28;20968;-43
2022/06/08 08:54:22;;;;;;;2.00;1.20;;;23.40;59.70;;;;;;4991649;28;20463;-43
2022/06/08 08:56:52;;;;;;;4.03;1.47;;;23.40;60.30;;;;;;4988614;28;21252;-43
2022/06/08 08:59:23;;;;;;;2.13;1.30;;;23.20;60.60;;;;;;4967456;28;20515;-44
2022/06/08 09:01:52;;;;;;;2.93;1.60;;;23.10;60.00;;;;;;4983868;28;22830;-43
2022/06/08 09:04:31;;;;;;;2.03;1.83;;;23.00;60.70;;;;;;4989981;28;20484;-43
2022/06/08 09:07:03;;;;;;;3.93;1.40;;;22.90;61.30;;;;;;4987715;28;21107;-43
2022/06/08 09:09:33;;;;;;;3.03;1.90;;;22.80;61.30;;;;;;4986279;28;20528;-44
2022/06/08 09:12:00;;;;;;;4.90;1.93;;;22.70;61.60;;;;;;4991221;28;20453;-43
2022/06/08 09:15:01;;;;;;;7.13;1.80;;;22.60;61.60;;;;;;4982991;28;20441;-43
2022/06/08 09:17:34;;;;;;;9.73;2.23;;;22.50;61.30;;;;;;4982630;28;20551;-43
2022/06/08 09:20:18;;;;;;;4.17;1.30;;;22.40;61.70;;;;;;4966736;28;21032;-43
2022/06/08 09:22:52;;;;;;;3.17;1.50;;;22.30;61.60;;;;;;4988160;28;20527;-43
2022/06/08 09:25:24;;;;;;;41.00;3.97;;;22.20;61.60;;;;;;4982814;28;20823;-44
2022/06/08 09:27:55;;;;;;;8.77;2.10;;;22.10;61.50;;;;;;4988786;28;20564;-44
2022/06/08 09:30:28;;;;;;;5.97;2.10;;;22.00;61.30;;;;;;4968621;28;20461;-44
2022/06/08 09:33:23;;;;;;;16.13;3.00;;;21.90;61.60;;;;;;4988803;28;20457;-43
2022/06/08 09:36:05;;;;;;;5.77;2.40;;;21.80;62.90;;;;;;4988936;28;21029;-43
2022/06/08 09:38:37;;;;;;;3.83;2.30;;;21.70;63.80;;;;;;4983420;28;20804;-43
2022/06/08 09:41:22;;;;;;;4.37;1.73;;;21.60;63.90;;;;;;4973417;28;20493;-43
2022/06/08 09:43:57;;;;;;;6.37;2.60;;;21.40;64.70;;;;;;4987855;28;20484;-43
2022/06/08 09:51:25;;;;;;;5.97;2.40;;;21.40;64.90;;;;;;4987535;28;20865;-43
2022/06/08 09:52:25;;;;;;;2.90;1.73;;;21.20;65.20;;;;;;4979026;28;20539;-43
2022/06/08 09:55:24;;;;;;;5.37;2.10;;;21.20;65.30;;;;;;4991012;28;20551;-43
2022/06/08 09:58:00;;;;;;;4.30;2.00;;;21.20;65.40;;;;;;4973549;28;20460;-43
2022/06/08 10:00:41;;;;;;;2.60;2.20;;;21.20;65.80;;;;;;4989225;28;20584;-43
2022/06/08 10:03:28;;;;;;;3.40;2.00;;;21.30;65.50;;;;;;4989460;28;20472;-43
2022/06/08 10:06:07;;;;;;;4.00;1.47;;;21.40;65.00;;;;;;4975165;28;20790;-43
2022/06/08 10:08:39;;;;;;;3.53;1.63;;;21.60;63.60;;;;;;4973371;28;20471;-43
2022/06/08 10:11:34;;;;;;;3.40;1.90;;;21.80;63.20;;;;;;4988956;28;20483;-43
2022/06/08 10:14:04;;;;;;;4.57;1.60;;;21.80;62.50;;;;;;4988943;28;20476;-43
2022/06/08 10:16:38;;;;;;;3.40;1.77;;;21.80;62.20;;;;;;4989864;28;20779;-43
2022/06/08 10:19:09;;;;;;;3.93;1.50;;;21.90;62.60;;;;;;4989785;28;20500;-43
2022/06/08 10:21:42;;;;;;;4.23;2.00;;;22.20;61.90;;;;;;4971473;28;20492;-43
2022/06/08 10:24:26;;;;;;;2.00;1.80;;;22.60;60.00;;;;;;4990130;28;20504;-43
2022/06/08 10:27:11;;;;;;;3.97;1.57;;;23.00;59.60;;;;;;4991442;28;20539;-43
2022/06/08 10:29:57;;;;;;;2.60;1.50;;;23.50;57.50;;;;;;4989047;28;20997;-43
2022/06/08 10:32:34;;;;;;;5.27;1.90;;;23.70;56.60;;;;;;4972933;28;20437;-43
2022/06/08 10:35:18;;;;;;;2.30;1.20;;;23.80;56.90;;;;;;4988952;28;20459;-44
2022/06/08 10:37:47;;;;;;;2.40;1.37;;;23.80;56.40;;;;;;4989616;28;20456;-44
2022/06/08 10:40:27;;;;;;;3.60;1.60;;;23.60;55.80;;;;;;4986475;28;20493;-43
2022/06/08 10:42:54;;;;;;;4.83;1.43;;;23.40;56.30;;;;;;4988266;28;20475;-43
2022/06/08 10:45:26;;;;;;;1.53;1.30;;;23.20;56.60;;;;;;4988074;28;20743;-43
2022/06/08 10:48:15;;;;;;;2.10;1.17;;;23.10;56.70;;;;;;4988918;28;20465;-43
2022/06/08 10:50:46;;;;;;;2.00;1.40;;;22.90;57.10;;;;;;4985213;28;20952;-43
2022/06/08 10:56:26;;;;;;;6.30;1.60;;;22.60;58.10;;;;;;4983784;28;20468;-44
2022/06/08 10:58:56;;;;;;;2.77;1.53;;;22.50;58.40;;;;;;4988822;28;21039;-44
2022/06/08 11:01:51;;;;;;;7.17;2.03;;;22.50;58.80;;;;;;4987561;28;20921;-43
2022/06/08 11:04:34;;;;;;;5.03;1.87;;;22.50;58.70;;;;;;4986778;28;20452;-43
2022/06/08 11:07:10;;;;;;;1.90;1.27;;;22.40;58.90;;;;;;4985172;28;20500;-44
2022/06/08 11:09:39;;;;;;;5.33;2.07;;;22.20;58.90;;;;;;4983526;28;21017;-43
2022/06/08 11:12:12;;;;;;;5.53;1.60;;;22.20;59.40;;;;;;4987320;28;20457;-44
2022/06/08 11:14:48;;;;;;;1.67;1.17;;;22.10;59.80;;;;;;4987941;28;20922;-43
2022/06/08 11:17:33;;;;;;;2.90;1.60;;;22.00;60.10;;;;;;4969067;28;20976;-44
2022/06/08 11:20:25;;;;;;;4.90;2.97;;;21.90;60.40;;;;;;4966341;28;20507;-43
2022/06/08 11:23:15;;;;;;;4.10;2.00;;;21.80;60.20;;;;;;4986017;28;20524;-44
2022/06/08 11:26:12;;;;;;;4.77;1.53;;;21.80;60.30;;;;;;4986496;28;20485;-43
2022/06/08 11:28:44;;;;;;;2.70;1.93;;;21.70;60.60;;;;;;4984274;28;20539;-43
2022/06/08 11:31:31;;;;;;;1.50;1.10;;;21.60;60.80;;;;;;4984009;28;20559;-43
2022/06/08 11:34:02;;;;;;;2.97;1.80;;;21.60;61.20;;;;;;4983655;28;20602;-44
2022/06/08 11:36:52;;;;;;;4.23;1.70;;;21.60;61.80;;;;;;4981244;28;20469;-44
2022/06/08 11:39:49;;;;;;;6.03;1.97;;;21.60;62.00;;;;;;4986024;28;20457;-43
2022/06/08 11:42:30;;;;;;;6.17;1.33;;;21.60;62.00;;;;;;4974434;28;21038;-44
2022/06/08 11:44:57;;;;;;;2.70;1.50;;;21.60;62.50;;;;;;4987852;28;20503;-43
2022/06/08 11:47:29;;;;;;;4.07;2.40;;;21.60;62.70;;;;;;4987050;28;20554;-43
2022/06/08 11:50:11;;;;;;;3.03;1.83;;;21.60;62.10;;;;;;4965839;28;20463;-44
2022/06/08 11:52:43;;;;;;;5.13;1.50;;;21.50;62.30;;;;;;4982856;28;20465;-43
2022/06/08 11:55:23;;;;;;;3.67;1.60;;;21.50;62.40;;;;;;4989033;28;20474;-44
2022/06/08 11:57:50;;;;;;;3.87;1.57;;;21.50;62.40;;;;;;4973011;28;20461;-44
2022/06/08 12:00:17;;;;;;;4.50;1.63;;;21.50;62.50;;;;;;4992202;28;20838;-44
2022/06/08 12:02:46;;;;;;;5.90;1.80;;;21.50;62.80;;;;;;4971567;28;20950;-43
2022/06/08 12:05:21;;;;;;;3.13;1.97;;;21.50;62.80;;;;;;4986876;28;21008;-44
2022/06/08 12:08:12;;;;;;;3.50;1.70;;;21.40;63.00;;;;;;4990219;28;20880;-44
2022/06/08 12:11:01;;;;;;;5.37;1.80;;;21.40;63.20;;;;;;4990919;28;20467;-43
2022/06/08 12:13:28;;;;;;;3.50;2.40;;;21.40;63.00;;;;;;4982939;28;20456;-44
2022/06/08 12:16:01;;;;;;;4.10;1.63;;;21.40;62.20;;;;;;4987529;28;20461;-43
2022/06/08 12:18:42;;;;;;;4.70;1.50;;;21.40;61.20;;;;;;4987681;28;20856;-43
2022/06/08 12:21:23;;;;;;;3.77;1.80;;;21.40;61.10;;;;;;4984582;28;20461;-44
2022/06/08 12:24:01;;;;;;;3.13;1.30;;;21.30;61.70;;;;;;4991015;28;20495;-44
2022/06/08 12:26:37;;;;;;;2.47;1.60;;;21.30;61.80;;;;;;4991751;28;20488;-44
2022/06/08 12:29:41;;;;;;;3.43;1.33;;;21.30;61.80;;;;;;4991693;28;20453;-44
2022/06/08 12:32:15;;;;;;;3.43;1.33;;;21.30;61.80;;;;;;4989912;28;20472;-44
2022/06/08 12:34:46;;;;;;;3.57;1.30;;;21.20;61.70;;;;;;4988256;28;20551;-44
2022/06/08 12:37:28;;;;;;;2.90;1.73;;;21.20;61.90;;;;;;4972234;28;20483;-44
2022/06/08 12:39:58;;;;;;;3.50;1.37;;;21.20;61.40;;;;;;4982920;28;20461;-44
2022/06/08 12:42:30;;;;;;;2.57;1.10;;;21.30;60.80;;;;;;4988212;28;20497;-44
2022/06/08 12:45:02;;;;;;;5.20;1.43;;;21.30;60.60;;;;;;4973149;28;21026;-44
2022/06/08 12:47:41;;;;;;;2.53;1.20;;;21.30;60.40;;;;;;4989225;28;20547;-44
2022/06/08 12:50:15;;;;;;;3.80;1.53;;;21.30;59.60;;;;;;4988740;28;20514;-44
2022/06/08 12:52:43;;;;;;;3.07;1.10;;;21.30;59.00;;;;;;4989294;28;20556;-44
2022/06/08 12:55:21;;;;;;;2.77;1.40;;;21.30;58.60;;;;;;4975688;28;20457;-44
2022/06/08 12:57:49;;;;;;;2.97;1.40;;;21.40;59.10;;;;;;4991225;28;20511;-44
2022/06/08 13:00:19;;;;;;;3.67;1.20;;;21.30;58.90;;;;;;4991603;28;20460;-44
2022/06/08 13:02:46;;;;;;;1.30;1.20;;;21.40;58.50;;;;;;4989374;28;20504;-44
2022/06/08 13:05:23;;;;;;;16.00;3.70;;;21.40;58.50;;;;;;4986857;28;20456;-44
2022/06/08 13:07:54;;;;;;;4.27;1.60;;;21.30;58.90;;;;;;4967414;28;20974;-44
2022/06/08 13:10:23;;;;;;;2.00;1.40;;;21.30;60.70;;;;;;4968485;28;20489;-44
2022/06/08 13:12:54;;;;;;;2.63;1.20;;;21.20;61.60;;;;;;4987600;28;20837;-44
2022/06/08 13:15:24;;;;;;;4.43;1.47;;;21.20;61.90;;;;;;4971814;28;20504;-43
2022/06/08 13:17:51;;;;;;;2.97;1.67;;;21.20;62.50;;;;;;4971153;28;20467;-43
2022/06/08 13:20:21;;;;;;;3.77;1.90;;;21.10;63.40;;;;;;4986097;28;20536;-43
2022/06/08 13:22:49;;;;;;;3.93;1.70;;;21.10;63.50;;;;;;4984653;28;20544;-43
2022/06/08 13:25:27;;;;;;;5.23;1.97;;;21.00;64.90;;;;;;4980589;28;20457;-43